sensor_id;sensor_type;location;lat;lon;timestamp;temperature;humidity
23073;DHT22;34865;51.046;3.732;2023-02-02T00:00:50;10.20;99.90
23073;DHT22;34865;51.046;3.732;2023-02-02T00:03:16;9.90;99.90
23073;DHT22;34865;51.046;3.732;2023-02-02T00:05:52;9.90;99.90
23073;DHT22;34865;51.046;3.732;2023-02-02T00:08:19;10.10;99.90
23073;DHT22;34865;51.046;3.732;2023-02-02T00:10:45;10.10;99.90
23073;DHT22;34865;51.046;3.732;2023-02-02T00:13:12;10.30;99.90
23073;DHT22;34865;51.046;3.732;2023-02-02T00:15:38;10.30;99.90
23073;DHT22;34865;51.046;3.732;2023-02-02T00:18:04;10.20;99.90
23073;DHT22;34865;51.046;3.732;2023-02-02T00:20:30;10.20;99.90
23073;DHT22;34865;51.046;3.732;2023-02-02T00:22:58;10.10;99.90
23073;DHT22;34865;51.046;3.732;2023-02-02T00:25:24;10.30;99.90
23073;DHT22;34865;51.046;3.732;2023-02-02T00:27:50;10.40;99.90
23073;DHT22;34865;51.046;3.732;2023-02-02T00:30:16;10.60;99.90
23073;DHT22;34865;51.046;3.732;2023-02-02T00:32:41;10.40;99.90
23073;DHT22;34865;51.046;3.732;2023-02-02T00:35:07;10.40;99.90
23073;DHT22;34865;51.046;3.732;2023-02-02T00:37:33;10.40;99.90
23073;DHT22;34865;51.046;3.732;2023-02-02T00:39:59;10.50;99.90
23073;DHT22;34865;51.046;3.732;2023-02-02T00:42:24;10.30;99.90
23073;DHT22;34865;51.046;3.732;2023-02-02T00:44:50;10.40;99.90
23073;DHT22;34865;51.046;3.732;2023-02-02T00:47:35;10.30;99.90
23073;DHT22;34865;51.046;3.732;2023-02-02T00:50:00;10.30;99.90
23073;DHT22;34865;51.046;3.732;2023-02-02T00:52:26;10.30;99.90
23073;DHT22;34865;51.046;3.732;2023-02-02T00:54:52;10.20;99.90
23073;DHT22;34865;51.046;3.732;2023-02-02T00:57:18;10.30;99.90
23073;DHT22;34865;51.046;3.732;2023-02-02T00:59:43;10.30;99.90
23073;DHT22;34865;51.046;3.732;2023-02-02T01:02:10;10.20;99.90
23073;DHT22;34865;51.046;3.732;2023-02-02T01:04:36;10.20;99.90
23073;DHT22;34865;51.046;3.732;2023-02-02T01:07:01;9.90;99.90
23073;DHT22;34865;51.046;3.732;2023-02-02T01:09:27;9.80;99.90
23073;DHT22;34865;51.046;3.732;2023-02-02T01:11:53;10.10;99.90
23073;DHT22;34865;51.046;3.732;2023-02-02T01:14:20;10.00;99.90
23073;DHT22;34865;51.046;3.732;2023-02-02T01:16:46;10.10;99.90
23073;DHT22;34865;51.046;3.732;2023-02-02T01:19:13;10.10;99.90
23073;DHT22;34865;51.046;3.732;2023-02-02T01:21:38;10.20;99.90
23073;DHT22;34865;51.046;3.732;2023-02-02T01:24:07;10.30;99.90
23073;DHT22;34865;51.046;3.732;2023-02-02T01:26:32;10.30;99.90
23073;DHT22;34865;51.046;3.732;2023-02-02T01:28:58;10.30;99.90
23073;DHT22;34865;51.046;3.732;2023-02-02T01:31:24;10.30;99.90
23073;DHT22;34865;51.046;3.732;2023-02-02T01:33:50;10.30;99.90
23073;DHT22;34865;51.046;3.732;2023-02-02T01:36:19;10.30;99.90
23073;DHT22;34865;51.046;3.732;2023-02-02T01:38:46;10.30;99.90
23073;DHT22;34865;51.046;3.732;2023-02-02T01:41:32;10.20;99.90
23073;DHT22;34865;51.046;3.732;2023-02-02T01:44:02;10.40;99.90
23073;DHT22;34865;51.046;3.732;2023-02-02T01:46:31;10.30;99.90
23073;DHT22;34865;51.046;3.732;2023-02-02T01:49:07;10.30;99.90
23073;DHT22;34865;51.046;3.732;2023-02-02T01:51:50;10.30;99.90
23073;DHT22;34865;51.046;3.732;2023-02-02T01:54:20;10.10;99.90
23073;DHT22;34865;51.046;3.732;2023-02-02T01:56:54;10.10;99.90
23073;DHT22;34865;51.046;3.732;2023-02-02T01:59:21;10.10;99.90
23073;DHT22;34865;51.046;3.732;2023-02-02T02:01:48;10.20;99.90
23073;DHT22;34865;51.046;3.732;2023-02-02T02:04:15;10.20;99.90
23073;DHT22;34865;51.046;3.732;2023-02-02T02:06:41;10.00;99.90
23073;DHT22;34865;51.046;3.732;2023-02-02T02:09:07;10.20;99.90
23073;DHT22;34865;51.046;3.732;2023-02-02T02:11:34;10.20;99.90
23073;DHT22;34865;51.046;3.732;2023-02-02T02:14:03;10.30;99.90
23073;DHT22;34865;51.046;3.732;2023-02-02T02:32:21;10.10;99.90
23073;DHT22;34865;51.046;3.732;2023-02-02T02:37:49;10.00;99.90
23073;DHT22;34865;51.046;3.732;2023-02-02T02:40:25;10.00;99.90
23073;DHT22;34865;51.046;3.732;2023-02-02T02:42:58;9.90;99.90
23073;DHT22;34865;51.046;3.732;2023-02-02T02:45:26;10.00;99.90
23073;DHT22;34865;51.046;3.732;2023-02-02T02:47:53;10.10;99.90
23073;DHT22;34865;51.046;3.732;2023-02-02T02:50:19;10.30;99.90
23073;DHT22;34865;51.046;3.732;2023-02-02T02:52:47;10.20;99.90
23073;DHT22;34865;51.046;3.732;2023-02-02T02:55:14;10.30;99.90
23073;DHT22;34865;51.046;3.732;2023-02-02T03:00:45;10.30;99.90
23073;DHT22;34865;51.046;3.732;2023-02-02T03:03:39;10.30;99.90
23073;DHT22;34865;51.046;3.732;2023-02-02T03:06:14;10.00;99.90
23073;DHT22;34865;51.046;3.732;2023-02-02T03:08:47;9.80;99.90
23073;DHT22;34865;51.046;3.732;2023-02-02T03:11:14;10.10;99.90
23073;DHT22;34865;51.046;3.732;2023-02-02T03:13:41;10.00;99.90
23073;DHT22;34865;51.046;3.732;2023-02-02T03:16:09;10.00;99.90
23073;DHT22;34865;51.046;3.732;2023-02-02T03:18:37;10.00;99.90
23073;DHT22;34865;51.046;3.732;2023-02-02T03:21:03;10.00;99.90
23073;DHT22;34865;51.046;3.732;2023-02-02T03:23:29;9.90;99.90
23073;DHT22;34865;51.046;3.732;2023-02-02T03:25:55;10.10;99.90
23073;DHT22;34865;51.046;3.732;2023-02-02T03:28:22;10.10;99.90
23073;DHT22;34865;51.046;3.732;2023-02-02T03:30:48;10.10;99.90
23073;DHT22;34865;51.046;3.732;2023-02-02T03:33:15;10.00;99.90
23073;DHT22;34865;51.046;3.732;2023-02-02T03:35:41;10.00;99.90
23073;DHT22;34865;51.046;3.732;2023-02-02T03:38:07;9.90;99.90
23073;DHT22;34865;51.046;3.732;2023-02-02T03:40:33;10.20;99.90
23073;DHT22;34865;51.046;3.732;2023-02-02T03:42:59;10.10;99.90
23073;DHT22;34865;51.046;3.732;2023-02-02T03:45:28;10.10;99.90
23073;DHT22;34865;51.046;3.732;2023-02-02T03:47:54;10.20;99.90
23073;DHT22;34865;51.046;3.732;2023-02-02T03:50:20;10.20;99.90
23073;DHT22;34865;51.046;3.732;2023-02-02T03:52:47;10.20;99.90
23073;DHT22;34865;51.046;3.732;2023-02-02T03:55:12;9.90;99.90
23073;DHT22;34865;51.046;3.732;2023-02-02T03:57:38;9.80;99.90
23073;DHT22;34865;51.046;3.732;2023-02-02T04:00:05;9.80;99.90
23073;DHT22;34865;51.046;3.732;2023-02-02T04:02:34;9.60;99.90
23073;DHT22;34865;51.046;3.732;2023-02-02T04:05:04;9.80;99.90
23073;DHT22;34865;51.046;3.732;2023-02-02T04:07:31;9.80;99.90
23073;DHT22;34865;51.046;3.732;2023-02-02T04:09:59;9.80;99.90
23073;DHT22;34865;51.046;3.732;2023-02-02T04:12:26;9.90;99.90
23073;DHT22;34865;51.046;3.732;2023-02-02T04:14:52;10.10;99.90
23073;DHT22;34865;51.046;3.732;2023-02-02T04:17:18;10.10;99.90
23073;DHT22;34865;51.046;3.732;2023-02-02T04:19:45;10.10;99.90
23073;DHT22;34865;51.046;3.732;2023-02-02T04:22:11;10.10;99.90
23073;DHT22;34865;51.046;3.732;2023-02-02T04:24:37;10.10;99.90
23073;DHT22;34865;51.046;3.732;2023-02-02T04:27:03;10.10;99.90
23073;DHT22;34865;51.046;3.732;2023-02-02T04:29:30;10.00;99.90
23073;DHT22;34865;51.046;3.732;2023-02-02T04:31:55;10.20;99.90
23073;DHT22;34865;51.046;3.732;2023-02-02T04:34:21;10.20;99.90
23073;DHT22;34865;51.046;3.732;2023-02-02T04:36:51;10.00;99.90
23073;DHT22;34865;51.046;3.732;2023-02-02T04:39:18;9.90;99.90
23073;DHT22;34865;51.046;3.732;2023-02-02T04:41:45;9.90;99.90
23073;DHT22;34865;51.046;3.732;2023-02-02T04:44:13;10.00;99.90
23073;DHT22;34865;51.046;3.732;2023-02-02T04:46:39;9.90;99.90
23073;DHT22;34865;51.046;3.732;2023-02-02T04:49:05;10.10;99.90
23073;DHT22;34865;51.046;3.732;2023-02-02T04:51:33;10.10;99.90
23073;DHT22;34865;51.046;3.732;2023-02-02T04:53:59;10.10;99.90
23073;DHT22;34865;51.046;3.732;2023-02-02T04:56:25;9.90;99.90
23073;DHT22;34865;51.046;3.732;2023-02-02T04:58:53;10.00;99.90
23073;DHT22;34865;51.046;3.732;2023-02-02T05:01:21;10.10;99.90
23073;DHT22;34865;51.046;3.732;2023-02-02T05:03:48;10.20;99.90
23073;DHT22;34865;51.046;3.732;2023-02-02T05:06:14;10.00;99.90
23073;DHT22;34865;51.046;3.732;2023-02-02T05:08:40;10.20;99.90
23073;DHT22;34865;51.046;3.732;2023-02-02T05:11:19;10.20;99.90
23073;DHT22;34865;51.046;3.732;2023-02-02T05:13:52;10.10;99.90
23073;DHT22;34865;51.046;3.732;2023-02-02T05:16:19;10.10;99.90
23073;DHT22;34865;51.046;3.732;2023-02-02T05:18:53;10.10;99.90
23073;DHT22;34865;51.046;3.732;2023-02-02T05:21:21;9.90;99.90
23073;DHT22;34865;51.046;3.732;2023-02-02T05:23:48;9.90;99.90
23073;DHT22;34865;51.046;3.732;2023-02-02T05:26:16;9.70;99.90
23073;DHT22;34865;51.046;3.732;2023-02-02T05:28:43;9.60;99.90
23073;DHT22;34865;51.046;3.732;2023-02-02T05:31:11;9.80;99.90
23073;DHT22;34865;51.046;3.732;2023-02-02T05:33:37;9.90;99.90
23073;DHT22;34865;51.046;3.732;2023-02-02T05:36:05;9.80;99.90
23073;DHT22;34865;51.046;3.732;2023-02-02T05:38:31;9.80;99.90
23073;DHT22;34865;51.046;3.732;2023-02-02T05:41:02;10.00;99.90
23073;DHT22;34865;51.046;3.732;2023-02-02T05:43:29;10.10;99.90
23073;DHT22;34865;51.046;3.732;2023-02-02T05:45:58;10.00;99.90
23073;DHT22;34865;51.046;3.732;2023-02-02T05:48:24;9.90;99.90
23073;DHT22;34865;51.046;3.732;2023-02-02T05:51:02;10.00;99.90
23073;DHT22;34865;51.046;3.732;2023-02-02T05:53:29;10.00;99.90
23073;DHT22;34865;51.046;3.732;2023-02-02T05:56:14;10.10;99.90
23073;DHT22;34865;51.046;3.732;2023-02-02T05:58:43;10.10;99.90
23073;DHT22;34865;51.046;3.732;2023-02-02T06:01:12;10.10;99.90
23073;DHT22;34865;51.046;3.732;2023-02-02T06:03:40;10.10;99.90
23073;DHT22;34865;51.046;3.732;2023-02-02T06:06:08;9.80;99.90
23073;DHT22;34865;51.046;3.732;2023-02-02T06:08:34;9.70;99.90
23073;DHT22;34865;51.046;3.732;2023-02-02T06:11:15;9.70;99.90
23073;DHT22;34865;51.046;3.732;2023-02-02T06:13:41;9.70;99.90
23073;DHT22;34865;51.046;3.732;2023-02-02T06:16:10;9.70;99.90
23073;DHT22;34865;51.046;3.732;2023-02-02T06:18:36;9.90;99.90
23073;DHT22;34865;51.046;3.732;2023-02-02T06:21:34;9.80;99.90
23073;DHT22;34865;51.046;3.732;2023-02-02T06:24:03;10.00;99.90
23073;DHT22;34865;51.046;3.732;2023-02-02T06:26:29;9.90;99.90
23073;DHT22;34865;51.046;3.732;2023-02-02T06:28:55;10.00;99.90
23073;DHT22;34865;51.046;3.732;2023-02-02T06:31:21;9.90;99.90
23073;DHT22;34865;51.046;3.732;2023-02-02T06:33:52;9.90;99.90
23073;DHT22;34865;51.046;3.732;2023-02-02T06:36:18;9.90;99.90
23073;DHT22;34865;51.046;3.732;2023-02-02T06:38:48;10.00;99.90
23073;DHT22;34865;51.046;3.732;2023-02-02T06:43:40;10.10;99.90
23073;DHT22;34865;51.046;3.732;2023-02-02T06:46:07;10.00;99.90
23073;DHT22;34865;51.046;3.732;2023-02-02T06:48:32;10.10;99.90
23073;DHT22;34865;51.046;3.732;2023-02-02T06:50:59;9.90;99.90
23073;DHT22;34865;51.046;3.732;2023-02-02T06:53:25;10.00;99.90
23073;DHT22;34865;51.046;3.732;2023-02-02T06:56:02;10.00;99.90
23073;DHT22;34865;51.046;3.732;2023-02-02T06:58:29;10.00;99.90
23073;DHT22;34865;51.046;3.732;2023-02-02T07:01:03;10.10;99.90
23073;DHT22;34865;51.046;3.732;2023-02-02T07:03:30;10.10;99.90
23073;DHT22;34865;51.046;3.732;2023-02-02T07:05:55;10.30;99.90
23073;DHT22;34865;51.046;3.732;2023-02-02T07:08:21;10.10;99.90
23073;DHT22;34865;51.046;3.732;2023-02-02T07:10:47;10.20;99.90
23073;DHT22;34865;51.046;3.732;2023-02-02T07:13:12;10.10;99.90
23073;DHT22;34865;51.046;3.732;2023-02-02T07:15:39;10.10;99.90
23073;DHT22;34865;51.046;3.732;2023-02-02T07:18:04;10.20;99.90
23073;DHT22;34865;51.046;3.732;2023-02-02T07:20:30;10.10;99.90
23073;DHT22;34865;51.046;3.732;2023-02-02T07:22:56;10.10;99.90
23073;DHT22;34865;51.046;3.732;2023-02-02T07:25:22;10.00;99.90
23073;DHT22;34865;51.046;3.732;2023-02-02T07:27:52;9.90;99.90
23073;DHT22;34865;51.046;3.732;2023-02-02T07:30:18;9.90;99.90
23073;DHT22;34865;51.046;3.732;2023-02-02T07:32:47;9.90;99.90
23073;DHT22;34865;51.046;3.732;2023-02-02T07:35:14;9.80;99.90
23073;DHT22;34865;51.046;3.732;2023-02-02T07:37:40;9.70;99.90
23073;DHT22;34865;51.046;3.732;2023-02-02T07:40:06;9.60;99.90
23073;DHT22;34865;51.046;3.732;2023-02-02T07:42:32;9.70;99.90
23073;DHT22;34865;51.046;3.732;2023-02-02T07:44:58;9.70;99.90
23073;DHT22;34865;51.046;3.732;2023-02-02T07:47:24;9.70;99.90
23073;DHT22;34865;51.046;3.732;2023-02-02T07:49:51;9.80;99.90
23073;DHT22;34865;51.046;3.732;2023-02-02T07:52:17;10.00;99.90
23073;DHT22;34865;51.046;3.732;2023-02-02T07:54:43;10.20;99.90
23073;DHT22;34865;51.046;3.732;2023-02-02T07:57:09;10.20;99.90
23073;DHT22;34865;51.046;3.732;2023-02-02T07:59:40;10.00;99.90
23073;DHT22;34865;51.046;3.732;2023-02-02T08:02:07;10.00;99.90
23073;DHT22;34865;51.046;3.732;2023-02-02T08:04:33;10.10;99.90
23073;DHT22;34865;51.046;3.732;2023-02-02T08:06:58;10.20;99.90
23073;DHT22;34865;51.046;3.732;2023-02-02T08:09:24;10.30;99.90
23073;DHT22;34865;51.046;3.732;2023-02-02T08:11:50;10.20;99.90
23073;DHT22;34865;51.046;3.732;2023-02-02T08:14:16;10.30;99.90
23073;DHT22;34865;51.046;3.732;2023-02-02T08:16:42;10.50;99.90
23073;DHT22;34865;51.046;3.732;2023-02-02T08:19:09;10.40;99.90
23073;DHT22;34865;51.046;3.732;2023-02-02T08:21:35;10.30;99.90
23073;DHT22;34865;51.046;3.732;2023-02-02T08:24:01;10.30;99.90
23073;DHT22;34865;51.046;3.732;2023-02-02T08:26:29;10.20;99.90
23073;DHT22;34865;51.046;3.732;2023-02-02T08:29:00;10.20;99.90
23073;DHT22;34865;51.046;3.732;2023-02-02T08:31:29;10.20;99.90
23073;DHT22;34865;51.046;3.732;2023-02-02T08:33:55;10.20;99.90
23073;DHT22;34865;51.046;3.732;2023-02-02T08:36:25;10.20;99.90
23073;DHT22;34865;51.046;3.732;2023-02-02T08:38:51;10.40;99.90
23073;DHT22;34865;51.046;3.732;2023-02-02T08:41:20;10.70;99.90
23073;DHT22;34865;51.046;3.732;2023-02-02T08:43:45;11.10;99.90
23073;DHT22;34865;51.046;3.732;2023-02-02T08:46:13;11.50;99.90
23073;DHT22;34865;51.046;3.732;2023-02-02T08:48:39;12.00;99.90
23073;DHT22;34865;51.046;3.732;2023-02-02T08:51:06;13.00;99.90
23073;DHT22;34865;51.046;3.732;2023-02-02T08:53:32;13.50;99.90
23073;DHT22;34865;51.046;3.732;2023-02-02T08:56:04;13.80;99.90
23073;DHT22;34865;51.046;3.732;2023-02-02T08:58:31;14.00;99.90
23073;DHT22;34865;51.046;3.732;2023-02-02T09:01:07;14.00;99.90
23073;DHT22;34865;51.046;3.732;2023-02-02T09:03:34;14.40;99.90
23073;DHT22;34865;51.046;3.732;2023-02-02T09:06:07;14.60;99.90
23073;DHT22;34865;51.046;3.732;2023-02-02T09:08:34;15.00;99.90
23073;DHT22;34865;51.046;3.732;2023-02-02T09:11:19;15.30;99.90
23073;DHT22;34865;51.046;3.732;2023-02-02T09:13:47;15.40;99.90
23073;DHT22;34865;51.046;3.732;2023-02-02T09:16:17;15.30;99.90
23073;DHT22;34865;51.046;3.732;2023-02-02T09:18:43;15.50;99.90
23073;DHT22;34865;51.046;3.732;2023-02-02T09:21:12;16.30;99.90
23073;DHT22;34865;51.046;3.732;2023-02-02T09:23:39;16.50;99.90
23073;DHT22;34865;51.046;3.732;2023-02-02T09:28:42;16.30;99.90
23073;DHT22;34865;51.046;3.732;2023-02-02T09:31:08;15.90;99.90
23073;DHT22;34865;51.046;3.732;2023-02-02T09:33:34;15.00;99.90
23073;DHT22;34865;51.046;3.732;2023-02-02T09:36:12;14.10;99.90
23073;DHT22;34865;51.046;3.732;2023-02-02T09:38:41;13.40;99.90
23073;DHT22;34865;51.046;3.732;2023-02-02T09:46:18;12.90;99.90
23073;DHT22;34865;51.046;3.732;2023-02-02T09:51:25;14.30;99.90
23073;DHT22;34865;51.046;3.732;2023-02-02T09:53:56;14.60;99.90
23073;DHT22;34865;51.046;3.732;2023-02-02T09:56:33;15.10;99.90
23073;DHT22;34865;51.046;3.732;2023-02-02T09:59:02;15.90;99.90
23073;DHT22;34865;51.046;3.732;2023-02-02T10:01:32;16.40;99.90
23073;DHT22;34865;51.046;3.732;2023-02-02T10:06:55;16.40;99.90
23073;DHT22;34865;51.046;3.732;2023-02-02T10:09:59;16.20;99.90
23073;DHT22;34865;51.046;3.732;2023-02-02T10:18:15;16.00;99.90
23073;DHT22;34865;51.046;3.732;2023-02-02T10:21:28;16.40;99.90
23073;DHT22;34865;51.046;3.732;2023-02-02T10:23:56;16.30;99.90
23073;DHT22;34865;51.046;3.732;2023-02-02T10:26:36;16.10;99.90
23073;DHT22;34865;51.046;3.732;2023-02-02T10:34:43;15.20;99.90
23073;DHT22;34865;51.046;3.732;2023-02-02T10:40:31;14.60;99.90
23073;DHT22;34865;51.046;3.732;2023-02-02T10:43:36;14.00;99.90
23073;DHT22;34865;51.046;3.732;2023-02-02T10:49:34;13.10;99.90
23073;DHT22;34865;51.046;3.732;2023-02-02T10:54:49;12.40;99.90
23073;DHT22;34865;51.046;3.732;2023-02-02T10:57:30;12.30;99.90
23073;DHT22;34865;51.046;3.732;2023-02-02T11:02:30;12.10;99.90
23073;DHT22;34865;51.046;3.732;2023-02-02T11:04:56;12.00;99.90
23073;DHT22;34865;51.046;3.732;2023-02-02T11:07:40;12.20;99.90
23073;DHT22;34865;51.046;3.732;2023-02-02T11:10:06;12.20;99.90
23073;DHT22;34865;51.046;3.732;2023-02-02T11:12:35;12.20;99.90
23073;DHT22;34865;51.046;3.732;2023-02-02T11:15:25;12.40;99.90
23073;DHT22;34865;51.046;3.732;2023-02-02T11:17:51;12.40;99.90
23073;DHT22;34865;51.046;3.732;2023-02-02T11:20:23;12.50;99.90
23073;DHT22;34865;51.046;3.732;2023-02-02T11:23:03;12.40;99.90
23073;DHT22;34865;51.046;3.732;2023-02-02T11:25:33;12.50;99.90
23073;DHT22;34865;51.046;3.732;2023-02-02T11:30:51;12.30;99.90
23073;DHT22;34865;51.046;3.732;2023-02-02T11:33:30;12.30;99.90
23073;DHT22;34865;51.046;3.732;2023-02-02T11:36:19;12.40;99.90
23073;DHT22;34865;51.046;3.732;2023-02-02T11:38:45;12.50;99.90
23073;DHT22;34865;51.046;3.732;2023-02-02T11:41:11;12.40;99.90
23073;DHT22;34865;51.046;3.732;2023-02-02T11:43:39;12.50;99.90
23073;DHT22;34865;51.046;3.732;2023-02-02T11:46:27;12.60;99.90
23073;DHT22;34865;51.046;3.732;2023-02-02T11:49:02;13.00;99.90
23073;DHT22;34865;51.046;3.732;2023-02-02T11:51:29;13.00;99.90
23073;DHT22;34865;51.046;3.732;2023-02-02T11:54:17;13.30;99.90
23073;DHT22;34865;51.046;3.732;2023-02-02T11:56:50;13.50;99.90
23073;DHT22;34865;51.046;3.732;2023-02-02T12:02:27;13.50;99.90
23073;DHT22;34865;51.046;3.732;2023-02-02T12:05:40;13.30;99.90
23073;DHT22;34865;51.046;3.732;2023-02-02T12:07:42;13.40;99.90
23073;DHT22;34865;51.046;3.732;2023-02-02T12:21:07;12.70;99.90
23073;DHT22;34865;51.046;3.732;2023-02-02T12:29:33;12.80;99.90
23073;DHT22;34865;51.046;3.732;2023-02-02T12:40:06;13.20;99.90
23073;DHT22;34865;51.046;3.732;2023-02-02T12:59:34;13.50;99.90
23073;DHT22;34865;51.046;3.732;2023-02-02T13:02:27;13.50;99.90
23073;DHT22;34865;51.046;3.732;2023-02-02T13:05:33;13.60;99.90
23073;DHT22;34865;51.046;3.732;2023-02-02T13:08:07;13.80;99.90
23073;DHT22;34865;51.046;3.732;2023-02-02T13:10:43;14.20;99.90
23073;DHT22;34865;51.046;3.732;2023-02-02T13:13:15;14.20;99.90
23073;DHT22;34865;51.046;3.732;2023-02-02T13:15:47;14.10;99.90
23073;DHT22;34865;51.046;3.732;2023-02-02T13:18:18;14.00;99.90
23073;DHT22;34865;51.046;3.732;2023-02-02T13:20:59;13.80;99.90
23073;DHT22;34865;51.046;3.732;2023-02-02T13:23:39;13.70;99.90
23073;DHT22;34865;51.046;3.732;2023-02-02T13:26:21;13.70;99.90
23073;DHT22;34865;51.046;3.732;2023-02-02T13:31:49;13.20;99.90
23073;DHT22;34865;51.046;3.732;2023-02-02T13:37:11;13.00;99.90
23073;DHT22;34865;51.046;3.732;2023-02-02T13:42:58;13.00;99.90
23073;DHT22;34865;51.046;3.732;2023-02-02T13:57:27;12.80;99.90
23073;DHT22;34865;51.046;3.732;2023-02-02T14:08:06;12.90;99.90
23073;DHT22;34865;51.046;3.732;2023-02-02T14:10:42;13.00;99.90
23073;DHT22;34865;51.046;3.732;2023-02-02T14:15:58;12.90;99.90
23073;DHT22;34865;51.046;3.732;2023-02-02T14:31:59;12.80;99.90
23073;DHT22;34865;51.046;3.732;2023-02-02T14:34:28;12.90;99.90
23073;DHT22;34865;51.046;3.732;2023-02-02T14:37:37;13.00;99.90
23073;DHT22;34865;51.046;3.732;2023-02-02T14:45:45;12.90;99.90
23073;DHT22;34865;51.046;3.732;2023-02-02T14:48:20;12.90;99.90
23073;DHT22;34865;51.046;3.732;2023-02-02T14:50:57;13.10;99.90
23073;DHT22;34865;51.046;3.732;2023-02-02T14:53:30;13.10;99.90
23073;DHT22;34865;51.046;3.732;2023-02-02T14:56:16;13.10;99.90
23073;DHT22;34865;51.046;3.732;2023-02-02T14:58:56;13.10;99.90
23073;DHT22;34865;51.046;3.732;2023-02-02T15:01:32;12.90;99.90
23073;DHT22;34865;51.046;3.732;2023-02-02T15:04:22;12.90;99.90
23073;DHT22;34865;51.046;3.732;2023-02-02T15:06:50;13.00;99.90
23073;DHT22;34865;51.046;3.732;2023-02-02T15:12:13;13.00;99.90
23073;DHT22;34865;51.046;3.732;2023-02-02T15:28:23;12.60;99.90
23073;DHT22;34865;51.046;3.732;2023-02-02T15:30:57;12.60;99.90
23073;DHT22;34865;51.046;3.732;2023-02-02T15:33:34;12.60;99.90
23073;DHT22;34865;51.046;3.732;2023-02-02T15:36:03;12.70;99.90
23073;DHT22;34865;51.046;3.732;2023-02-02T15:38:35;12.50;99.90
23073;DHT22;34865;51.046;3.732;2023-02-02T15:41:07;12.50;99.90
23073;DHT22;34865;51.046;3.732;2023-02-02T15:43:37;12.40;99.90
23073;DHT22;34865;51.046;3.732;2023-02-02T15:46:05;12.40;99.90
23073;DHT22;34865;51.046;3.732;2023-02-02T15:48:34;12.40;99.90
23073;DHT22;34865;51.046;3.732;2023-02-02T15:51:06;12.40;99.90
23073;DHT22;34865;51.046;3.732;2023-02-02T15:56:34;12.30;99.90
23073;DHT22;34865;51.046;3.732;2023-02-02T15:58:59;12.30;99.90
23073;DHT22;34865;51.046;3.732;2023-02-02T16:01:29;12.40;99.90
23073;DHT22;34865;51.046;3.732;2023-02-02T16:06:39;12.20;99.90
23073;DHT22;34865;51.046;3.732;2023-02-02T16:09:20;12.40;99.90
23073;DHT22;34865;51.046;3.732;2023-02-02T16:11:47;12.40;99.90
23073;DHT22;34865;51.046;3.732;2023-02-02T16:14:14;12.10;99.90
23073;DHT22;34865;51.046;3.732;2023-02-02T16:16:43;12.00;99.90
23073;DHT22;34865;51.046;3.732;2023-02-02T16:21:59;12.00;99.90
23073;DHT22;34865;51.046;3.732;2023-02-02T16:26:57;11.80;99.90
23073;DHT22;34865;51.046;3.732;2023-02-02T16:29:24;11.80;99.90
23073;DHT22;34865;51.046;3.732;2023-02-02T16:31:52;11.90;99.90
23073;DHT22;34865;51.046;3.732;2023-02-02T16:37:13;11.80;99.90
23073;DHT22;34865;51.046;3.732;2023-02-02T16:39:39;11.70;99.90
23073;DHT22;34865;51.046;3.732;2023-02-02T16:42:31;11.60;99.90
23073;DHT22;34865;51.046;3.732;2023-02-02T16:44:58;11.70;99.90
23073;DHT22;34865;51.046;3.732;2023-02-02T16:53:21;11.50;99.90
23073;DHT22;34865;51.046;3.732;2023-02-02T16:55:47;11.60;99.90
23073;DHT22;34865;51.046;3.732;2023-02-02T16:58:18;11.60;99.90
23073;DHT22;34865;51.046;3.732;2023-02-02T17:03:29;11.50;99.90
23073;DHT22;34865;51.046;3.732;2023-02-02T17:05:56;11.60;99.90
23073;DHT22;34865;51.046;3.732;2023-02-02T17:08:29;11.60;99.90
23073;DHT22;34865;51.046;3.732;2023-02-02T17:11:17;11.50;99.90
23073;DHT22;34865;51.046;3.732;2023-02-02T17:13:44;11.40;99.90
23073;DHT22;34865;51.046;3.732;2023-02-02T17:16:13;11.30;99.90
23073;DHT22;34865;51.046;3.732;2023-02-02T17:18:40;11.30;99.90
23073;DHT22;34865;51.046;3.732;2023-02-02T17:21:06;11.30;99.90
23073;DHT22;34865;51.046;3.732;2023-02-02T17:23:38;11.30;99.90
23073;DHT22;34865;51.046;3.732;2023-02-02T17:26:06;11.40;99.90
23073;DHT22;34865;51.046;3.732;2023-02-02T17:28:33;11.40;99.90
23073;DHT22;34865;51.046;3.732;2023-02-02T17:31:01;11.20;99.90
23073;DHT22;34865;51.046;3.732;2023-02-02T17:33:32;10.90;99.90
23073;DHT22;34865;51.046;3.732;2023-02-02T17:35:58;10.90;99.90
23073;DHT22;34865;51.046;3.732;2023-02-02T17:38:25;11.20;99.90
23073;DHT22;34865;51.046;3.732;2023-02-02T17:40:53;10.90;99.90
23073;DHT22;34865;51.046;3.732;2023-02-02T17:43:47;10.90;99.90
23073;DHT22;34865;51.046;3.732;2023-02-02T17:46:12;10.90;99.90
23073;DHT22;34865;51.046;3.732;2023-02-02T17:48:38;10.90;99.90
23073;DHT22;34865;51.046;3.732;2023-02-02T17:51:04;10.90;99.90
23073;DHT22;34865;51.046;3.732;2023-02-02T17:53:33;11.00;99.90
23073;DHT22;34865;51.046;3.732;2023-02-02T17:55:58;11.00;99.90
23073;DHT22;34865;51.046;3.732;2023-02-02T17:58:24;11.10;99.90
23073;DHT22;34865;51.046;3.732;2023-02-02T18:00:54;11.10;99.90
23073;DHT22;34865;51.046;3.732;2023-02-02T18:03:30;11.20;99.90
23073;DHT22;34865;51.046;3.732;2023-02-02T18:06:00;11.30;99.90
23073;DHT22;34865;51.046;3.732;2023-02-02T18:08:30;11.30;99.90
23073;DHT22;34865;51.046;3.732;2023-02-02T18:10:59;11.20;99.90
23073;DHT22;34865;51.046;3.732;2023-02-02T18:13:25;11.40;99.90
23073;DHT22;34865;51.046;3.732;2023-02-02T18:15:52;11.20;99.90
23073;DHT22;34865;51.046;3.732;2023-02-02T18:18:18;11.20;99.90
23073;DHT22;34865;51.046;3.732;2023-02-02T18:20:48;11.20;99.90
23073;DHT22;34865;51.046;3.732;2023-02-02T18:23:16;11.20;99.90
23073;DHT22;34865;51.046;3.732;2023-02-02T18:25:43;11.30;99.90
23073;DHT22;34865;51.046;3.732;2023-02-02T18:28:09;11.40;99.90
23073;DHT22;34865;51.046;3.732;2023-02-02T18:30:39;11.20;99.90
23073;DHT22;34865;51.046;3.732;2023-02-02T18:33:07;11.30;99.90
23073;DHT22;34865;51.046;3.732;2023-02-02T18:35:33;11.40;99.90
23073;DHT22;34865;51.046;3.732;2023-02-02T18:37:59;11.30;99.90
23073;DHT22;34865;51.046;3.732;2023-02-02T18:40:25;11.30;99.90
23073;DHT22;34865;51.046;3.732;2023-02-02T18:42:50;11.00;99.90
23073;DHT22;34865;51.046;3.732;2023-02-02T18:45:16;11.10;99.90
23073;DHT22;34865;51.046;3.732;2023-02-02T18:47:42;11.20;99.90
23073;DHT22;34865;51.046;3.732;2023-02-02T18:50:08;11.40;99.90
23073;DHT22;34865;51.046;3.732;2023-02-02T18:52:34;11.40;99.90
23073;DHT22;34865;51.046;3.732;2023-02-02T18:55:00;11.30;99.90
23073;DHT22;34865;51.046;3.732;2023-02-02T18:57:28;11.50;99.90
23073;DHT22;34865;51.046;3.732;2023-02-02T18:59:54;11.40;99.90
23073;DHT22;34865;51.046;3.732;2023-02-02T19:02:20;11.40;99.90
23073;DHT22;34865;51.046;3.732;2023-02-02T19:04:45;11.30;99.90
23073;DHT22;34865;51.046;3.732;2023-02-02T19:07:30;11.30;99.90